Archival Weather

Republic

Farmingdale, New York (KFRG)

Report from: Sunday, February 18, 2024 7:53 PM EST
Current time: Friday, June 14, 2024 8:04 AM EDT

Current weather – Weather history – Daily summaries
Weather forecast

Temperature2.8°C (37.0°F)
Wind chill0.7°C (33.3°F)
Dew point-8.9°C (16.0°F)
Winds 4 kts (2.1 m/s, 4.6 mph) Southwest (230°)
Visibility10 mi. (16.1 km)
Clouds Sky clear
Altimeter29.84 in.Hg (1010 mB)
Relative humidity42 %
Density altitude-1,334 ft. (-407 m)
Sea-level pressure101.1 kPa (1011 mB, 29.84 in.Hg)
Remarks Automated weather observing station without precipitation discriminator
Flight conditions Visual Meteorological Conditions
Raw dataKFRG 190053Z 23004KT 10SM CLR 03/M09 A2984 RMK AO1 SLP105 T00281089
An error has occurred. This application may no longer respond until reloaded. Reload 🗙